West Fort Dodge, Iowa
Current Conditions -  °F | °C
As of 1:35 PM on Tuesday 21 Oct 2014 (Local Time) from KFOD Reporting Station
Clear Clear  
Wind Chill: 64°   Ceiling: Unl
Heat Index: 64°   Visibility: 10mi
Dew Point: 45°   Wind: 7mph
Humidity: 49%   Direction: 180°S
Pressure: 30.13"   Gusts: NA
Location:  42.5075°N, 94.2531°W
Report Text: KFOD 211835Z AUTO 18006KT 10SM CLR 18/07 A3013 RMK AO1
Loading
Personal Weather Stations






























Interactive Weather Map
Tropical Storm Tracking
New forecast layout! Learn more

10-Day Weather Forecast

Advertisements
Track Severe Weather on mobile